sensor_id;sensor_type;location;lat;lon;timestamp;temperature;humidity
40660;DHT22;26753;45.544;9.232;2022-07-06T00:01:32;30.10;94.30
40660;DHT22;26753;45.544;9.232;2022-07-06T00:03:58;30.10;94.50
40660;DHT22;26753;45.544;9.232;2022-07-06T00:06:24;30.00;94.60
40660;DHT22;26753;45.544;9.232;2022-07-06T00:08:50;29.90;94.70
40660;DHT22;26753;45.544;9.232;2022-07-06T00:11:16;29.90;94.80
40660;DHT22;26753;45.544;9.232;2022-07-06T00:13:42;29.90;94.80
40660;DHT22;26753;45.544;9.232;2022-07-06T00:16:07;29.90;94.80
40660;DHT22;26753;45.544;9.232;2022-07-06T00:18:33;29.90;94.80
40660;DHT22;26753;45.544;9.232;2022-07-06T00:20:59;29.80;94.80
40660;DHT22;26753;45.544;9.232;2022-07-06T00:23:25;29.80;94.90
40660;DHT22;26753;45.544;9.232;2022-07-06T00:25:51;29.80;94.90
40660;DHT22;26753;45.544;9.232;2022-07-06T00:28:17;29.70;95.00
40660;DHT22;26753;45.544;9.232;2022-07-06T00:30:43;29.70;95.00
40660;DHT22;26753;45.544;9.232;2022-07-06T00:33:08;29.70;95.10
40660;DHT22;26753;45.544;9.232;2022-07-06T00:35:34;29.60;95.10
40660;DHT22;26753;45.544;9.232;2022-07-06T00:38:00;29.60;95.20
40660;DHT22;26753;45.544;9.232;2022-07-06T00:40:26;29.60;95.20
40660;DHT22;26753;45.544;9.232;2022-07-06T00:42:52;29.70;95.30
40660;DHT22;26753;45.544;9.232;2022-07-06T00:45:18;29.70;95.30
40660;DHT22;26753;45.544;9.232;2022-07-06T00:47:45;29.70;95.40
40660;DHT22;26753;45.544;9.232;2022-07-06T00:50:13;29.70;95.40
40660;DHT22;26753;45.544;9.232;2022-07-06T00:55:19;29.60;95.50
40660;DHT22;26753;45.544;9.232;2022-07-06T00:57:46;29.50;95.60
40660;DHT22;26753;45.544;9.232;2022-07-06T01:00:14;29.50;95.60
40660;DHT22;26753;45.544;9.232;2022-07-06T01:02:41;29.50;95.70
40660;DHT22;26753;45.544;9.232;2022-07-06T01:05:09;29.40;95.80
40660;DHT22;26753;45.544;9.232;2022-07-06T01:07:36;29.40;95.90
40660;DHT22;26753;45.544;9.232;2022-07-06T01:10:03;29.40;96.20
40660;DHT22;26753;45.544;9.232;2022-07-06T01:12:34;29.40;96.00
40660;DHT22;26753;45.544;9.232;2022-07-06T01:15:13;29.40;96.10
40660;DHT22;26753;45.544;9.232;2022-07-06T01:17:40;29.40;96.20
40660;DHT22;26753;45.544;9.232;2022-07-06T01:20:18;29.30;96.10
40660;DHT22;26753;45.544;9.232;2022-07-06T01:22:46;29.30;96.20
40660;DHT22;26753;45.544;9.232;2022-07-06T01:25:13;29.30;96.20
40660;DHT22;26753;45.544;9.232;2022-07-06T01:27:40;29.30;96.20
40660;DHT22;26753;45.544;9.232;2022-07-06T01:30:11;29.30;96.20
40660;DHT22;26753;45.544;9.232;2022-07-06T01:32:38;29.30;96.20
40660;DHT22;26753;45.544;9.232;2022-07-06T01:35:06;29.30;96.20
40660;DHT22;26753;45.544;9.232;2022-07-06T01:37:32;29.30;96.20
40660;DHT22;26753;45.544;9.232;2022-07-06T01:40:02;29.20;96.20
40660;DHT22;26753;45.544;9.232;2022-07-06T01:42:31;29.20;96.20
40660;DHT22;26753;45.544;9.232;2022-07-06T01:44:57;29.20;96.20
40660;DHT22;26753;45.544;9.232;2022-07-06T01:47:23;29.20;96.30
40660;DHT22;26753;45.544;9.232;2022-07-06T01:49:49;29.20;96.30
40660;DHT22;26753;45.544;9.232;2022-07-06T01:52:15;29.20;96.40
40660;DHT22;26753;45.544;9.232;2022-07-06T01:54:41;29.20;96.40
40660;DHT22;26753;45.544;9.232;2022-07-06T01:57:07;29.10;96.40
40660;DHT22;26753;45.544;9.232;2022-07-06T01:59:33;29.10;96.50
40660;DHT22;26753;45.544;9.232;2022-07-06T02:01:59;29.10;96.90
40660;DHT22;26753;45.544;9.232;2022-07-06T02:04:25;29.00;96.50
40660;DHT22;26753;45.544;9.232;2022-07-06T02:06:51;29.10;96.60
40660;DHT22;26753;45.544;9.232;2022-07-06T02:09:16;29.10;96.60
40660;DHT22;26753;45.544;9.232;2022-07-06T02:11:43;29.10;96.70
40660;DHT22;26753;45.544;9.232;2022-07-06T02:14:09;29.00;96.70
40660;DHT22;26753;45.544;9.232;2022-07-06T02:16:34;29.00;96.80
40660;DHT22;26753;45.544;9.232;2022-07-06T02:19:00;29.00;96.80
40660;DHT22;26753;45.544;9.232;2022-07-06T02:21:26;28.90;96.90
40660;DHT22;26753;45.544;9.232;2022-07-06T02:23:52;28.90;97.00
40660;DHT22;26753;45.544;9.232;2022-07-06T02:26:18;28.90;97.00
40660;DHT22;26753;45.544;9.232;2022-07-06T02:28:44;28.90;97.10
40660;DHT22;26753;45.544;9.232;2022-07-06T02:31:11;28.80;97.10
40660;DHT22;26753;45.544;9.232;2022-07-06T02:33:39;28.80;97.10
40660;DHT22;26753;45.544;9.232;2022-07-06T02:36:05;28.80;97.20
40660;DHT22;26753;45.544;9.232;2022-07-06T02:38:31;28.70;97.30
40660;DHT22;26753;45.544;9.232;2022-07-06T02:40:56;28.80;97.40
40660;DHT22;26753;45.544;9.232;2022-07-06T02:43:22;28.80;97.40
40660;DHT22;26753;45.544;9.232;2022-07-06T02:45:48;28.80;97.50
40660;DHT22;26753;45.544;9.232;2022-07-06T02:48:14;28.80;97.50
40660;DHT22;26753;45.544;9.232;2022-07-06T02:50:39;28.70;97.50
40660;DHT22;26753;45.544;9.232;2022-07-06T02:53:05;28.70;97.60
40660;DHT22;26753;45.544;9.232;2022-07-06T02:55:31;28.60;97.70
40660;DHT22;26753;45.544;9.232;2022-07-06T02:57:57;28.60;97.80
40660;DHT22;26753;45.544;9.232;2022-07-06T03:00:23;28.60;97.90
40660;DHT22;26753;45.544;9.232;2022-07-06T03:02:48;28.50;97.90
40660;DHT22;26753;45.544;9.232;2022-07-06T03:05:14;28.50;97.80
40660;DHT22;26753;45.544;9.232;2022-07-06T03:07:40;28.40;98.00
40660;DHT22;26753;45.544;9.232;2022-07-06T03:10:06;28.30;98.20
40660;DHT22;26753;45.544;9.232;2022-07-06T03:12:32;28.20;98.20
40660;DHT22;26753;45.544;9.232;2022-07-06T03:14:58;28.20;98.20
40660;DHT22;26753;45.544;9.232;2022-07-06T03:17:24;28.10;98.40
40660;DHT22;26753;45.544;9.232;2022-07-06T03:19:49;28.00;99.10
40660;DHT22;26753;45.544;9.232;2022-07-06T03:22:15;27.90;99.00
40660;DHT22;26753;45.544;9.232;2022-07-06T03:24:41;27.90;99.20
40660;DHT22;26753;45.544;9.232;2022-07-06T03:27:07;27.80;99.50
40660;DHT22;26753;45.544;9.232;2022-07-06T03:29:32;27.80;99.80
40660;DHT22;26753;45.544;9.232;2022-07-06T03:31:58;27.80;99.90
40660;DHT22;26753;45.544;9.232;2022-07-06T03:34:24;27.80;99.90
40660;DHT22;26753;45.544;9.232;2022-07-06T03:36:50;27.80;99.90
40660;DHT22;26753;45.544;9.232;2022-07-06T03:39:15;27.70;99.90
40660;DHT22;26753;45.544;9.232;2022-07-06T03:41:41;27.70;99.90
40660;DHT22;26753;45.544;9.232;2022-07-06T03:44:07;27.60;99.90
40660;DHT22;26753;45.544;9.232;2022-07-06T03:46:32;27.40;99.90
40660;DHT22;26753;45.544;9.232;2022-07-06T03:48:58;27.30;99.90
40660;DHT22;26753;45.544;9.232;2022-07-06T03:51:24;27.20;99.90
40660;DHT22;26753;45.544;9.232;2022-07-06T03:53:49;27.10;99.90
40660;DHT22;26753;45.544;9.232;2022-07-06T03:56:15;27.10;99.90
40660;DHT22;26753;45.544;9.232;2022-07-06T03:58:54;27.10;99.90
40660;DHT22;26753;45.544;9.232;2022-07-06T04:01:20;27.10;99.90
40660;DHT22;26753;45.544;9.232;2022-07-06T04:03:45;27.10;99.90
40660;DHT22;26753;45.544;9.232;2022-07-06T04:06:11;27.10;99.90
40660;DHT22;26753;45.544;9.232;2022-07-06T04:08:40;27.00;99.90
40660;DHT22;26753;45.544;9.232;2022-07-06T04:11:06;26.90;99.90
40660;DHT22;26753;45.544;9.232;2022-07-06T04:13:31;26.90;99.90
40660;DHT22;26753;45.544;9.232;2022-07-06T04:15:57;26.90;99.90
40660;DHT22;26753;45.544;9.232;2022-07-06T04:18:23;27.00;99.90
40660;DHT22;26753;45.544;9.232;2022-07-06T04:20:49;27.00;99.90
40660;DHT22;26753;45.544;9.232;2022-07-06T04:23:14;27.00;99.90
40660;DHT22;26753;45.544;9.232;2022-07-06T04:25:40;27.00;99.90
40660;DHT22;26753;45.544;9.232;2022-07-06T04:28:06;27.00;99.90
40660;DHT22;26753;45.544;9.232;2022-07-06T04:30:31;26.90;99.90
40660;DHT22;26753;45.544;9.232;2022-07-06T04:32:57;26.90;99.90
40660;DHT22;26753;45.544;9.232;2022-07-06T04:35:23;27.00;99.90
40660;DHT22;26753;45.544;9.232;2022-07-06T04:37:49;26.90;99.90
40660;DHT22;26753;45.544;9.232;2022-07-06T04:40:15;27.00;99.90
40660;DHT22;26753;45.544;9.232;2022-07-06T04:42:40;27.00;99.90
40660;DHT22;26753;45.544;9.232;2022-07-06T04:45:07;27.00;99.90
40660;DHT22;26753;45.544;9.232;2022-07-06T04:47:34;27.10;99.90
40660;DHT22;26753;45.544;9.232;2022-07-06T04:50:00;27.10;99.90
40660;DHT22;26753;45.544;9.232;2022-07-06T04:52:26;27.20;99.90
40660;DHT22;26753;45.544;9.232;2022-07-06T04:54:54;27.20;99.90
40660;DHT22;26753;45.544;9.232;2022-07-06T04:57:20;27.30;99.90
40660;DHT22;26753;45.544;9.232;2022-07-06T04:59:46;27.30;99.90
40660;DHT22;26753;45.544;9.232;2022-07-06T05:02:12;27.30;99.90
40660;DHT22;26753;45.544;9.232;2022-07-06T05:04:37;27.30;99.90
40660;DHT22;26753;45.544;9.232;2022-07-06T05:07:03;27.30;99.90
40660;DHT22;26753;45.544;9.232;2022-07-06T05:09:29;27.30;99.90
40660;DHT22;26753;45.544;9.232;2022-07-06T05:11:55;27.30;99.90
40660;DHT22;26753;45.544;9.232;2022-07-06T05:14:21;27.50;99.90
40660;DHT22;26753;45.544;9.232;2022-07-06T05:16:46;27.70;99.90
40660;DHT22;26753;45.544;9.232;2022-07-06T05:19:12;27.70;99.90
40660;DHT22;26753;45.544;9.232;2022-07-06T05:21:38;27.80;99.90
40660;DHT22;26753;45.544;9.232;2022-07-06T05:24:04;27.80;99.90
40660;DHT22;26753;45.544;9.232;2022-07-06T05:26:29;27.70;99.90
40660;DHT22;26753;45.544;9.232;2022-07-06T05:28:55;27.70;99.90
40660;DHT22;26753;45.544;9.232;2022-07-06T05:31:21;27.70;99.90
40660;DHT22;26753;45.544;9.232;2022-07-06T05:33:47;27.80;99.90
40660;DHT22;26753;45.544;9.232;2022-07-06T05:36:12;27.90;99.90
40660;DHT22;26753;45.544;9.232;2022-07-06T05:38:38;27.90;99.90
40660;DHT22;26753;45.544;9.232;2022-07-06T05:41:04;28.10;99.90
40660;DHT22;26753;45.544;9.232;2022-07-06T05:43:30;28.20;99.90
40660;DHT22;26753;45.544;9.232;2022-07-06T05:45:55;28.30;99.90
40660;DHT22;26753;45.544;9.232;2022-07-06T05:48:21;28.20;99.90
40660;DHT22;26753;45.544;9.232;2022-07-06T05:51:05;28.10;99.90
40660;DHT22;26753;45.544;9.232;2022-07-06T05:53:31;28.10;99.90
40660;DHT22;26753;45.544;9.232;2022-07-06T05:55:57;27.90;99.90
40660;DHT22;26753;45.544;9.232;2022-07-06T05:58:23;27.90;99.90
40660;DHT22;26753;45.544;9.232;2022-07-06T06:00:50;27.90;99.90
40660;DHT22;26753;45.544;9.232;2022-07-06T06:03:16;27.90;99.90
40660;DHT22;26753;45.544;9.232;2022-07-06T06:05:42;27.90;99.90
40660;DHT22;26753;45.544;9.232;2022-07-06T06:08:08;27.90;99.90
40660;DHT22;26753;45.544;9.232;2022-07-06T06:10:34;28.00;99.90
40660;DHT22;26753;45.544;9.232;2022-07-06T06:12:59;28.00;99.90
40660;DHT22;26753;45.544;9.232;2022-07-06T06:15:25;27.90;99.90
40660;DHT22;26753;45.544;9.232;2022-07-06T06:17:51;28.00;99.90
40660;DHT22;26753;45.544;9.232;2022-07-06T06:20:16;28.10;99.90
40660;DHT22;26753;45.544;9.232;2022-07-06T06:22:50;28.20;99.90
40660;DHT22;26753;45.544;9.232;2022-07-06T06:25:19;28.40;99.90
40660;DHT22;26753;45.544;9.232;2022-07-06T06:27:45;28.30;99.90
40660;DHT22;26753;45.544;9.232;2022-07-06T06:30:12;28.50;99.90
40660;DHT22;26753;45.544;9.232;2022-07-06T06:32:39;28.70;99.90
40660;DHT22;26753;45.544;9.232;2022-07-06T06:35:05;28.80;99.90
40660;DHT22;26753;45.544;9.232;2022-07-06T06:37:32;29.00;99.90
40660;DHT22;26753;45.544;9.232;2022-07-06T06:39:59;28.90;99.90
40660;DHT22;26753;45.544;9.232;2022-07-06T06:42:25;29.00;99.90
40660;DHT22;26753;45.544;9.232;2022-07-06T06:44:50;29.10;99.90
40660;DHT22;26753;45.544;9.232;2022-07-06T06:47:16;29.10;99.90
40660;DHT22;26753;45.544;9.232;2022-07-06T06:49:42;29.30;99.90
40660;DHT22;26753;45.544;9.232;2022-07-06T06:52:07;29.20;99.90
40660;DHT22;26753;45.544;9.232;2022-07-06T06:54:33;29.30;99.90
40660;DHT22;26753;45.544;9.232;2022-07-06T06:57:00;29.40;99.90
40660;DHT22;26753;45.544;9.232;2022-07-06T06:59:26;29.40;99.90
40660;DHT22;26753;45.544;9.232;2022-07-06T07:01:51;29.60;99.90
40660;DHT22;26753;45.544;9.232;2022-07-06T07:04:17;29.70;99.90
40660;DHT22;26753;45.544;9.232;2022-07-06T07:06:43;29.80;99.90
40660;DHT22;26753;45.544;9.232;2022-07-06T07:09:11;29.80;99.90
40660;DHT22;26753;45.544;9.232;2022-07-06T07:11:37;29.50;99.90
40660;DHT22;26753;45.544;9.232;2022-07-06T07:14:03;29.40;99.90
40660;DHT22;26753;45.544;9.232;2022-07-06T07:16:29;29.40;99.90
40660;DHT22;26753;45.544;9.232;2022-07-06T07:18:55;29.50;99.90
40660;DHT22;26753;45.544;9.232;2022-07-06T07:21:20;29.60;99.90
40660;DHT22;26753;45.544;9.232;2022-07-06T07:23:46;29.90;99.90
40660;DHT22;26753;45.544;9.232;2022-07-06T07:26:12;29.90;99.90
40660;DHT22;26753;45.544;9.232;2022-07-06T07:28:37;30.00;99.90
40660;DHT22;26753;45.544;9.232;2022-07-06T07:31:04;30.20;99.90
40660;DHT22;26753;45.544;9.232;2022-07-06T07:33:30;30.30;99.90
40660;DHT22;26753;45.544;9.232;2022-07-06T07:35:56;30.30;99.90
40660;DHT22;26753;45.544;9.232;2022-07-06T07:38:22;30.30;99.90
40660;DHT22;26753;45.544;9.232;2022-07-06T07:40:48;30.40;99.90
40660;DHT22;26753;45.544;9.232;2022-07-06T07:43:14;30.50;99.90
40660;DHT22;26753;45.544;9.232;2022-07-06T07:45:39;30.50;99.90
40660;DHT22;26753;45.544;9.232;2022-07-06T07:48:05;30.60;99.90
40660;DHT22;26753;45.544;9.232;2022-07-06T07:50:31;30.50;99.90
40660;DHT22;26753;45.544;9.232;2022-07-06T07:52:57;30.50;99.90
40660;DHT22;26753;45.544;9.232;2022-07-06T07:55:23;30.60;99.90
40660;DHT22;26753;45.544;9.232;2022-07-06T07:57:49;30.60;99.90
40660;DHT22;26753;45.544;9.232;2022-07-06T08:00:15;30.70;99.90
40660;DHT22;26753;45.544;9.232;2022-07-06T08:02:40;30.80;99.90
40660;DHT22;26753;45.544;9.232;2022-07-06T08:05:07;30.90;99.90
40660;DHT22;26753;45.544;9.232;2022-07-06T08:07:33;30.70;99.90
40660;DHT22;26753;45.544;9.232;2022-07-06T08:09:58;30.70;99.90
40660;DHT22;26753;45.544;9.232;2022-07-06T08:12:24;30.80;99.90
40660;DHT22;26753;45.544;9.232;2022-07-06T08:14:50;30.80;99.90
40660;DHT22;26753;45.544;9.232;2022-07-06T08:17:15;30.90;99.90
40660;DHT22;26753;45.544;9.232;2022-07-06T08:19:41;31.00;99.90
40660;DHT22;26753;45.544;9.232;2022-07-06T08:22:07;31.10;99.90
40660;DHT22;26753;45.544;9.232;2022-07-06T08:24:36;31.20;99.90
40660;DHT22;26753;45.544;9.232;2022-07-06T08:27:02;31.30;99.90
40660;DHT22;26753;45.544;9.232;2022-07-06T08:29:29;31.40;99.90
40660;DHT22;26753;45.544;9.232;2022-07-06T08:31:56;31.40;99.80
40660;DHT22;26753;45.544;9.232;2022-07-06T08:34:22;31.40;99.70
40660;DHT22;26753;45.544;9.232;2022-07-06T08:36:48;31.40;99.60
40660;DHT22;26753;45.544;9.232;2022-07-06T08:39:14;31.30;99.60
40660;DHT22;26753;45.544;9.232;2022-07-06T08:41:42;31.20;99.50
40660;DHT22;26753;45.544;9.232;2022-07-06T08:44:09;31.30;99.40
40660;DHT22;26753;45.544;9.232;2022-07-06T08:46:38;31.20;99.10
40660;DHT22;26753;45.544;9.232;2022-07-06T08:49:06;30.90;99.40
40660;DHT22;26753;45.544;9.232;2022-07-06T08:51:32;30.90;99.20
40660;DHT22;26753;45.544;9.232;2022-07-06T08:54:00;30.90;99.10
40660;DHT22;26753;45.544;9.232;2022-07-06T08:56:28;31.00;99.00
40660;DHT22;26753;45.544;9.232;2022-07-06T08:58:54;31.10;98.80
40660;DHT22;26753;45.544;9.232;2022-07-06T09:01:21;31.10;98.60
40660;DHT22;26753;45.544;9.232;2022-07-06T09:03:49;31.10;98.20
40660;DHT22;26753;45.544;9.232;2022-07-06T09:06:24;31.20;98.40
40660;DHT22;26753;45.544;9.232;2022-07-06T09:08:53;31.20;97.90
40660;DHT22;26753;45.544;9.232;2022-07-06T09:11:23;31.40;97.70
40660;DHT22;26753;45.544;9.232;2022-07-06T09:13:52;31.50;97.60
40660;DHT22;26753;45.544;9.232;2022-07-06T09:16:25;31.60;97.50
40660;DHT22;26753;45.544;9.232;2022-07-06T09:18:52;31.70;97.40
40660;DHT22;26753;45.544;9.232;2022-07-06T09:21:32;31.70;97.50
40660;DHT22;26753;45.544;9.232;2022-07-06T09:23:59;31.70;97.30
40660;DHT22;26753;45.544;9.232;2022-07-06T09:26:26;31.70;97.30
40660;DHT22;26753;45.544;9.232;2022-07-06T09:28:55;31.80;97.30
40660;DHT22;26753;45.544;9.232;2022-07-06T09:31:40;31.80;97.20
40660;DHT22;26753;45.544;9.232;2022-07-06T09:34:07;31.80;97.10
40660;DHT22;26753;45.544;9.232;2022-07-06T09:39:43;31.80;96.90
40660;DHT22;26753;45.544;9.232;2022-07-06T09:42:10;31.80;96.90
40660;DHT22;26753;45.544;9.232;2022-07-06T09:44:37;31.90;96.80
40660;DHT22;26753;45.544;9.232;2022-07-06T09:47:08;32.10;96.70
40660;DHT22;26753;45.544;9.232;2022-07-06T09:49:36;32.10;96.40
40660;DHT22;26753;45.544;9.232;2022-07-06T09:52:04;32.00;96.00
40660;DHT22;26753;45.544;9.232;2022-07-06T09:54:32;32.00;95.90
40660;DHT22;26753;45.544;9.232;2022-07-06T09:56:58;31.90;95.90
40660;DHT22;26753;45.544;9.232;2022-07-06T09:59:26;31.80;96.20
40660;DHT22;26753;45.544;9.232;2022-07-06T10:01:57;31.90;96.10
40660;DHT22;26753;45.544;9.232;2022-07-06T10:04:24;32.00;95.90
40660;DHT22;26753;45.544;9.232;2022-07-06T10:06:51;31.70;96.10
40660;DHT22;26753;45.544;9.232;2022-07-06T10:09:19;31.50;96.20
40660;DHT22;26753;45.544;9.232;2022-07-06T10:11:48;31.80;96.10
40660;DHT22;26753;45.544;9.232;2022-07-06T10:14:20;31.70;95.90
40660;DHT22;26753;45.544;9.232;2022-07-06T10:16:47;31.90;95.90
40660;DHT22;26753;45.544;9.232;2022-07-06T10:19:14;32.00;95.70
40660;DHT22;26753;45.544;9.232;2022-07-06T10:21:41;32.10;95.50
40660;DHT22;26753;45.544;9.232;2022-07-06T10:24:08;32.40;95.30
40660;DHT22;26753;45.544;9.232;2022-07-06T10:26:35;32.30;95.30
40660;DHT22;26753;45.544;9.232;2022-07-06T10:29:03;32.60;95.10
40660;DHT22;26753;45.544;9.232;2022-07-06T10:31:34;32.50;94.90
40660;DHT22;26753;45.544;9.232;2022-07-06T10:34:03;32.80;94.80
40660;DHT22;26753;45.544;9.232;2022-07-06T10:36:30;33.10;94.60
40660;DHT22;26753;45.544;9.232;2022-07-06T10:38:56;33.20;94.50
40660;DHT22;26753;45.544;9.232;2022-07-06T10:41:33;33.30;94.40
40660;DHT22;26753;45.544;9.232;2022-07-06T10:44:27;33.30;94.40
40660;DHT22;26753;45.544;9.232;2022-07-06T10:46:57;33.30;94.30
40660;DHT22;26753;45.544;9.232;2022-07-06T10:49:26;33.50;94.10
40660;DHT22;26753;45.544;9.232;2022-07-06T10:51:52;33.70;93.90
40660;DHT22;26753;45.544;9.232;2022-07-06T10:54:19;33.80;93.70
40660;DHT22;26753;45.544;9.232;2022-07-06T10:56:50;34.00;93.50
40660;DHT22;26753;45.544;9.232;2022-07-06T10:59:17;34.10;93.30
40660;DHT22;26753;45.544;9.232;2022-07-06T11:02:15;34.10;93.20
40660;DHT22;26753;45.544;9.232;2022-07-06T11:04:46;34.30;92.70
40660;DHT22;26753;45.544;9.232;2022-07-06T11:07:17;34.30;92.60
40660;DHT22;26753;45.544;9.232;2022-07-06T11:09:57;34.40;92.20
40660;DHT22;26753;45.544;9.232;2022-07-06T11:12:23;34.50;92.00
40660;DHT22;26753;45.544;9.232;2022-07-06T11:14:51;34.50;92.10
40660;DHT22;26753;45.544;9.232;2022-07-06T11:17:17;34.80;91.80
40660;DHT22;26753;45.544;9.232;2022-07-06T11:22:17;35.20;90.90
40660;DHT22;26753;45.544;9.232;2022-07-06T11:24:44;35.30;90.80
40660;DHT22;26753;45.544;9.232;2022-07-06T11:27:10;35.20;90.70
40660;DHT22;26753;45.544;9.232;2022-07-06T11:29:36;35.30;90.40
40660;DHT22;26753;45.544;9.232;2022-07-06T11:32:05;35.30;90.40
40660;DHT22;26753;45.544;9.232;2022-07-06T11:34:33;35.50;90.20
40660;DHT22;26753;45.544;9.232;2022-07-06T11:37:04;35.50;89.40
40660;DHT22;26753;45.544;9.232;2022-07-06T11:39:35;35.40;89.60
40660;DHT22;26753;45.544;9.232;2022-07-06T11:42:02;35.40;89.20
40660;DHT22;26753;45.544;9.232;2022-07-06T11:44:29;35.60;89.30
40660;DHT22;26753;45.544;9.232;2022-07-06T11:46:55;35.80;88.60
40660;DHT22;26753;45.544;9.232;2022-07-06T11:49:23;35.70;88.00
40660;DHT22;26753;45.544;9.232;2022-07-06T11:51:48;35.70;87.60
40660;DHT22;26753;45.544;9.232;2022-07-06T11:54:16;35.90;87.30
40660;DHT22;26753;45.544;9.232;2022-07-06T11:56:59;36.10;86.40
40660;DHT22;26753;45.544;9.232;2022-07-06T11:59:27;36.40;85.50
40660;DHT22;26753;45.544;9.232;2022-07-06T12:02:05;36.40;85.10
40660;DHT22;26753;45.544;9.232;2022-07-06T12:04:32;36.10;84.60
40660;DHT22;26753;45.544;9.232;2022-07-06T12:07:04;36.00;85.20
40660;DHT22;26753;45.544;9.232;2022-07-06T12:09:32;35.90;85.00
40660;DHT22;26753;45.544;9.232;2022-07-06T12:11:58;36.10;84.90
40660;DHT22;26753;45.544;9.232;2022-07-06T12:14:27;36.20;85.00
40660;DHT22;26753;45.544;9.232;2022-07-06T12:16:53;36.50;84.60
40660;DHT22;26753;45.544;9.232;2022-07-06T12:19:22;36.60;83.50
40660;DHT22;26753;45.544;9.232;2022-07-06T12:21:50;36.70;82.80
40660;DHT22;26753;45.544;9.232;2022-07-06T12:24:20;36.80;82.60
40660;DHT22;26753;45.544;9.232;2022-07-06T12:26:47;36.80;81.90
40660;DHT22;26753;45.544;9.232;2022-07-06T12:29:13;37.00;81.90
40660;DHT22;26753;45.544;9.232;2022-07-06T12:34:19;37.20;80.40
40660;DHT22;26753;45.544;9.232;2022-07-06T12:36:53;37.30;80.60
40660;DHT22;26753;45.544;9.232;2022-07-06T12:39:24;37.50;79.50
40660;DHT22;26753;45.544;9.232;2022-07-06T12:50:41;37.80;77.80
40660;DHT22;26753;45.544;9.232;2022-07-06T12:53:25;37.90;77.80
40660;DHT22;26753;45.544;9.232;2022-07-06T12:56:11;38.20;76.40
40660;DHT22;26753;45.544;9.232;2022-07-06T12:58:36;38.40;76.00
40660;DHT22;26753;45.544;9.232;2022-07-06T13:01:02;38.00;76.40
40660;DHT22;26753;45.544;9.232;2022-07-06T13:03:28;38.20;75.80
40660;DHT22;26753;45.544;9.232;2022-07-06T13:06:05;38.20;75.10
40660;DHT22;26753;45.544;9.232;2022-07-06T13:08:30;38.20;75.40
40660;DHT22;26753;45.544;9.232;2022-07-06T13:10:56;38.40;75.40
40660;DHT22;26753;45.544;9.232;2022-07-06T13:13:21;38.70;74.90
40660;DHT22;26753;45.544;9.232;2022-07-06T13:15:48;38.90;74.40
40660;DHT22;26753;45.544;9.232;2022-07-06T13:18:14;38.60;74.70
40660;DHT22;26753;45.544;9.232;2022-07-06T13:20:40;38.70;74.80
40660;DHT22;26753;45.544;9.232;2022-07-06T13:23:07;38.50;74.60
40660;DHT22;26753;45.544;9.232;2022-07-06T13:25:32;37.90;75.40
40660;DHT22;26753;45.544;9.232;2022-07-06T13:27:58;38.00;75.60
40660;DHT22;26753;45.544;9.232;2022-07-06T13:30:24;38.20;75.50
40660;DHT22;26753;45.544;9.232;2022-07-06T13:32:49;37.80;75.30
40660;DHT22;26753;45.544;9.232;2022-07-06T13:35:15;38.30;75.30
40660;DHT22;26753;45.544;9.232;2022-07-06T13:37:41;38.50;74.50
40660;DHT22;26753;45.544;9.232;2022-07-06T13:40:07;38.40;74.90
40660;DHT22;26753;45.544;9.232;2022-07-06T13:42:33;38.80;75.10
40660;DHT22;26753;45.544;9.232;2022-07-06T13:44:59;38.90;74.10
40660;DHT22;26753;45.544;9.232;2022-07-06T13:47:25;39.30;73.80
40660;DHT22;26753;45.544;9.232;2022-07-06T13:49:50;39.50;73.20
40660;DHT22;26753;45.544;9.232;2022-07-06T13:52:16;39.80;72.70
40660;DHT22;26753;45.544;9.232;2022-07-06T13:54:42;40.20;71.60
40660;DHT22;26753;45.544;9.232;2022-07-06T13:57:07;40.20;71.50
40660;DHT22;26753;45.544;9.232;2022-07-06T13:59:33;40.40;71.20
40660;DHT22;26753;45.544;9.232;2022-07-06T14:01:59;40.10;71.40
40660;DHT22;26753;45.544;9.232;2022-07-06T14:04:25;40.30;71.50
40660;DHT22;26753;45.544;9.232;2022-07-06T14:06:50;40.10;71.10
40660;DHT22;26753;45.544;9.232;2022-07-06T14:09:16;39.80;70.90
40660;DHT22;26753;45.544;9.232;2022-07-06T14:11:42;39.50;71.00
40660;DHT22;26753;45.544;9.232;2022-07-06T14:14:07;39.60;71.10
40660;DHT22;26753;45.544;9.232;2022-07-06T14:16:36;39.90;71.20
40660;DHT22;26753;45.544;9.232;2022-07-06T14:19:02;40.30;70.90
40660;DHT22;26753;45.544;9.232;2022-07-06T14:21:28;40.80;70.20
40660;DHT22;26753;45.544;9.232;2022-07-06T14:23:54;40.80;69.90
40660;DHT22;26753;45.544;9.232;2022-07-06T14:26:20;41.00;69.40
40660;DHT22;26753;45.544;9.232;2022-07-06T14:28:45;41.40;69.30
40660;DHT22;26753;45.544;9.232;2022-07-06T14:31:11;41.50;68.90
40660;DHT22;26753;45.544;9.232;2022-07-06T14:33:37;42.00;68.50
40660;DHT22;26753;45.544;9.232;2022-07-06T14:36:03;41.50;68.10
40660;DHT22;26753;45.544;9.232;2022-07-06T14:38:29;40.40;68.40
40660;DHT22;26753;45.544;9.232;2022-07-06T14:40:55;40.50;69.00
40660;DHT22;26753;45.544;9.232;2022-07-06T15:06:57;40.60;67.60
40660;DHT22;26753;45.544;9.232;2022-07-06T15:09:23;41.10;67.70
40660;DHT22;26753;45.544;9.232;2022-07-06T15:11:49;41.60;67.90
40660;DHT22;26753;45.544;9.232;2022-07-06T15:14:15;41.10;68.30
40660;DHT22;26753;45.544;9.232;2022-07-06T15:16:42;41.50;68.10
40660;DHT22;26753;45.544;9.232;2022-07-06T15:19:09;40.70;67.80
40660;DHT22;26753;45.544;9.232;2022-07-06T15:21:35;41.00;67.70
40660;DHT22;26753;45.544;9.232;2022-07-06T15:24:01;40.90;67.60
40660;DHT22;26753;45.544;9.232;2022-07-06T15:26:27;41.60;67.90
40660;DHT22;26753;45.544;9.232;2022-07-06T15:28:53;41.40;68.50
40660;DHT22;26753;45.544;9.232;2022-07-06T15:31:19;43.40;67.10
40660;DHT22;26753;45.544;9.232;2022-07-06T15:33:44;45.20;65.30
40660;DHT22;26753;45.544;9.232;2022-07-06T15:36:10;47.10;62.60
40660;DHT22;26753;45.544;9.232;2022-07-06T15:38:36;47.10;61.30
40660;DHT22;26753;45.544;9.232;2022-07-06T15:41:03;47.30;60.50
40660;DHT22;26753;45.544;9.232;2022-07-06T15:43:32;48.50;59.70
40660;DHT22;26753;45.544;9.232;2022-07-06T15:46:00;49.20;58.90
40660;DHT22;26753;45.544;9.232;2022-07-06T15:48:27;49.80;58.00
40660;DHT22;26753;45.544;9.232;2022-07-06T15:50:54;48.30;57.80
40660;DHT22;26753;45.544;9.232;2022-07-06T15:53:20;49.10;57.70
40660;DHT22;26753;45.544;9.232;2022-07-06T15:55:45;49.70;57.20
40660;DHT22;26753;45.544;9.232;2022-07-06T15:58:11;49.10;57.60
40660;DHT22;26753;45.544;9.232;2022-07-06T16:00:37;49.00;58.00
40660;DHT22;26753;45.544;9.232;2022-07-06T16:03:04;49.80;57.30
40660;DHT22;26753;45.544;9.232;2022-07-06T16:05:30;48.90;57.20
40660;DHT22;26753;45.544;9.232;2022-07-06T16:07:56;49.80;56.80
40660;DHT22;26753;45.544;9.232;2022-07-06T16:10:22;49.30;55.70
40660;DHT22;26753;45.544;9.232;2022-07-06T16:12:47;49.10;56.20